sensor_id;sensor_type;location;lat;lon;timestamp;temperature;humidity
3752;DHT22;50827;47.014;7.652;2022-09-09T00:00:47;15.70;99.90
3752;DHT22;50827;47.014;7.652;2022-09-09T00:03:24;15.70;99.90
3752;DHT22;50827;47.014;7.652;2022-09-09T00:06:07;15.70;99.90
3752;DHT22;50827;47.014;7.652;2022-09-09T00:08:47;15.70;99.90
3752;DHT22;50827;47.014;7.652;2022-09-09T00:11:19;15.70;99.90
3752;DHT22;50827;47.014;7.652;2022-09-09T00:13:52;15.70;99.90
3752;DHT22;50827;47.014;7.652;2022-09-09T00:16:25;15.70;99.90
3752;DHT22;50827;47.014;7.652;2022-09-09T00:19:33;15.70;99.90
3752;DHT22;50827;47.014;7.652;2022-09-09T00:22:15;15.70;99.90
3752;DHT22;50827;47.014;7.652;2022-09-09T00:24:56;15.60;99.90
3752;DHT22;50827;47.014;7.652;2022-09-09T00:32:47;15.60;99.90
3752;DHT22;50827;47.014;7.652;2022-09-09T00:35:29;15.50;99.90
3752;DHT22;50827;47.014;7.652;2022-09-09T00:38:00;15.50;99.90
3752;DHT22;50827;47.014;7.652;2022-09-09T00:40:34;15.40;99.90
3752;DHT22;50827;47.014;7.652;2022-09-09T00:57:45;15.10;99.90
3752;DHT22;50827;47.014;7.652;2022-09-09T01:03:42;15.10;99.90
3752;DHT22;50827;47.014;7.652;2022-09-09T01:06:14;15.00;99.90
3752;DHT22;50827;47.014;7.652;2022-09-09T01:08:56;15.00;99.90
3752;DHT22;50827;47.014;7.652;2022-09-09T01:11:26;15.00;99.90
3752;DHT22;50827;47.014;7.652;2022-09-09T01:14:09;14.90;99.90
3752;DHT22;50827;47.014;7.652;2022-09-09T01:16:38;14.90;99.90
3752;DHT22;50827;47.014;7.652;2022-09-09T01:19:09;15.00;99.90
3752;DHT22;50827;47.014;7.652;2022-09-09T01:27:34;15.10;99.90
3752;DHT22;50827;47.014;7.652;2022-09-09T01:30:09;15.20;99.90
3752;DHT22;50827;47.014;7.652;2022-09-09T01:32:49;15.10;99.90
3752;DHT22;50827;47.014;7.652;2022-09-09T01:38:08;15.10;99.90
3752;DHT22;50827;47.014;7.652;2022-09-09T01:40:35;15.10;99.90
3752;DHT22;50827;47.014;7.652;2022-09-09T01:43:02;15.00;99.90
3752;DHT22;50827;47.014;7.652;2022-09-09T01:45:30;15.00;99.90
3752;DHT22;50827;47.014;7.652;2022-09-09T01:47:58;15.10;99.90
3752;DHT22;50827;47.014;7.652;2022-09-09T01:50:25;15.20;99.90
3752;DHT22;50827;47.014;7.652;2022-09-09T01:52:56;15.20;99.90
3752;DHT22;50827;47.014;7.652;2022-09-09T01:55:30;15.30;99.90
3752;DHT22;50827;47.014;7.652;2022-09-09T02:00:24;15.30;99.90
3752;DHT22;50827;47.014;7.652;2022-09-09T02:06:02;15.40;99.90
3752;DHT22;50827;47.014;7.652;2022-09-09T02:11:09;15.20;99.90
3752;DHT22;50827;47.014;7.652;2022-09-09T02:13:38;15.20;99.90
3752;DHT22;50827;47.014;7.652;2022-09-09T02:16:08;15.10;99.90
3752;DHT22;50827;47.014;7.652;2022-09-09T02:18:57;15.00;99.90
3752;DHT22;50827;47.014;7.652;2022-09-09T02:21:30;14.90;99.90
3752;DHT22;50827;47.014;7.652;2022-09-09T02:23:59;14.90;99.90
3752;DHT22;50827;47.014;7.652;2022-09-09T02:26:32;14.90;99.90
3752;DHT22;50827;47.014;7.652;2022-09-09T02:29:02;14.90;99.90
3752;DHT22;50827;47.014;7.652;2022-09-09T02:31:30;14.90;99.90
3752;DHT22;50827;47.014;7.652;2022-09-09T02:34:00;14.90;99.90
3752;DHT22;50827;47.014;7.652;2022-09-09T02:36:31;14.90;99.90
3752;DHT22;50827;47.014;7.652;2022-09-09T02:39:00;15.00;99.90
3752;DHT22;50827;47.014;7.652;2022-09-09T02:41:35;15.00;99.90
3752;DHT22;50827;47.014;7.652;2022-09-09T02:44:10;15.10;99.90
3752;DHT22;50827;47.014;7.652;2022-09-09T02:52:21;15.00;99.90
3752;DHT22;50827;47.014;7.652;2022-09-09T02:54:57;14.90;99.90
3752;DHT22;50827;47.014;7.652;2022-09-09T02:57:28;14.80;99.90
3752;DHT22;50827;47.014;7.652;2022-09-09T02:59:57;14.80;99.90
3752;DHT22;50827;47.014;7.652;2022-09-09T03:02:24;14.90;99.90
3752;DHT22;50827;47.014;7.652;2022-09-09T03:04:51;15.00;99.90
3752;DHT22;50827;47.014;7.652;2022-09-09T03:07:19;15.00;99.90
3752;DHT22;50827;47.014;7.652;2022-09-09T03:09:46;15.10;99.90
3752;DHT22;50827;47.014;7.652;2022-09-09T03:12:13;15.00;99.90
3752;DHT22;50827;47.014;7.652;2022-09-09T03:14:40;14.90;99.90
3752;DHT22;50827;47.014;7.652;2022-09-09T03:17:06;15.00;99.90
3752;DHT22;50827;47.014;7.652;2022-09-09T03:19:33;15.00;99.90
3752;DHT22;50827;47.014;7.652;2022-09-09T03:22:01;15.00;99.90
3752;DHT22;50827;47.014;7.652;2022-09-09T03:24:28;15.00;99.90
3752;DHT22;50827;47.014;7.652;2022-09-09T03:26:54;15.10;99.90
3752;DHT22;50827;47.014;7.652;2022-09-09T03:29:22;15.10;99.90
3752;DHT22;50827;47.014;7.652;2022-09-09T03:31:48;15.20;99.90
3752;DHT22;50827;47.014;7.652;2022-09-09T03:34:17;15.20;99.90
3752;DHT22;50827;47.014;7.652;2022-09-09T03:36:43;15.30;99.90
3752;DHT22;50827;47.014;7.652;2022-09-09T03:39:10;15.30;99.90
3752;DHT22;50827;47.014;7.652;2022-09-09T03:41:37;15.30;99.90
3752;DHT22;50827;47.014;7.652;2022-09-09T03:44:03;15.40;99.90
3752;DHT22;50827;47.014;7.652;2022-09-09T03:46:30;15.40;99.90
3752;DHT22;50827;47.014;7.652;2022-09-09T03:48:57;15.40;99.90
3752;DHT22;50827;47.014;7.652;2022-09-09T03:51:24;15.30;99.90
3752;DHT22;50827;47.014;7.652;2022-09-09T03:53:51;15.30;99.90
3752;DHT22;50827;47.014;7.652;2022-09-09T03:56:18;15.30;99.90
3752;DHT22;50827;47.014;7.652;2022-09-09T03:58:44;15.40;99.90
3752;DHT22;50827;47.014;7.652;2022-09-09T04:01:12;15.40;99.90
3752;DHT22;50827;47.014;7.652;2022-09-09T04:03:40;15.30;99.90
3752;DHT22;50827;47.014;7.652;2022-09-09T04:06:08;15.40;99.90
3752;DHT22;50827;47.014;7.652;2022-09-09T04:08:37;15.30;99.90
3752;DHT22;50827;47.014;7.652;2022-09-09T04:11:05;15.20;99.90
3752;DHT22;50827;47.014;7.652;2022-09-09T04:13:34;15.20;99.90
3752;DHT22;50827;47.014;7.652;2022-09-09T04:16:02;15.20;99.90
3752;DHT22;50827;47.014;7.652;2022-09-09T04:18:31;15.20;99.90
3752;DHT22;50827;47.014;7.652;2022-09-09T04:20:58;15.20;99.90
3752;DHT22;50827;47.014;7.652;2022-09-09T04:23:26;15.20;99.90
3752;DHT22;50827;47.014;7.652;2022-09-09T04:25:56;15.20;99.90
3752;DHT22;50827;47.014;7.652;2022-09-09T04:28:25;15.30;99.90
3752;DHT22;50827;47.014;7.652;2022-09-09T04:30:52;15.30;99.90
3752;DHT22;50827;47.014;7.652;2022-09-09T04:33:19;15.40;99.90
3752;DHT22;50827;47.014;7.652;2022-09-09T04:35:47;15.30;99.90
3752;DHT22;50827;47.014;7.652;2022-09-09T04:38:16;15.40;99.90
3752;DHT22;50827;47.014;7.652;2022-09-09T04:40:45;15.40;99.90
3752;DHT22;50827;47.014;7.652;2022-09-09T04:43:13;15.30;99.90
3752;DHT22;50827;47.014;7.652;2022-09-09T04:45:42;15.30;99.90
3752;DHT22;50827;47.014;7.652;2022-09-09T04:48:09;15.30;99.90
3752;DHT22;50827;47.014;7.652;2022-09-09T04:50:36;15.20;99.90
3752;DHT22;50827;47.014;7.652;2022-09-09T04:53:03;15.20;99.90
3752;DHT22;50827;47.014;7.652;2022-09-09T04:55:31;15.20;99.90
3752;DHT22;50827;47.014;7.652;2022-09-09T04:58:05;15.20;99.90
3752;DHT22;50827;47.014;7.652;2022-09-09T05:00:34;15.20;99.90
3752;DHT22;50827;47.014;7.652;2022-09-09T05:03:05;15.20;99.90
3752;DHT22;50827;47.014;7.652;2022-09-09T05:05:33;15.20;99.90
3752;DHT22;50827;47.014;7.652;2022-09-09T05:08:04;15.20;99.90
3752;DHT22;50827;47.014;7.652;2022-09-09T05:10:32;15.20;99.90
3752;DHT22;50827;47.014;7.652;2022-09-09T05:12:59;15.20;99.90
3752;DHT22;50827;47.014;7.652;2022-09-09T05:15:26;15.20;99.90
3752;DHT22;50827;47.014;7.652;2022-09-09T05:17:57;15.10;99.90
3752;DHT22;50827;47.014;7.652;2022-09-09T05:20:25;15.00;99.90
3752;DHT22;50827;47.014;7.652;2022-09-09T05:22:55;15.00;99.90
3752;DHT22;50827;47.014;7.652;2022-09-09T05:25:23;15.00;99.90
3752;DHT22;50827;47.014;7.652;2022-09-09T05:27:52;15.00;99.90
3752;DHT22;50827;47.014;7.652;2022-09-09T05:30:21;15.00;99.90
3752;DHT22;50827;47.014;7.652;2022-09-09T05:32:49;15.00;99.90
3752;DHT22;50827;47.014;7.652;2022-09-09T05:35:15;15.00;99.90
3752;DHT22;50827;47.014;7.652;2022-09-09T05:37:44;15.00;99.90
3752;DHT22;50827;47.014;7.652;2022-09-09T05:40:12;15.00;99.90
3752;DHT22;50827;47.014;7.652;2022-09-09T05:42:39;15.00;99.90
3752;DHT22;50827;47.014;7.652;2022-09-09T05:45:07;15.00;99.90
3752;DHT22;50827;47.014;7.652;2022-09-09T05:47:35;15.00;99.90
3752;DHT22;50827;47.014;7.652;2022-09-09T05:50:02;15.00;99.90
3752;DHT22;50827;47.014;7.652;2022-09-09T05:52:28;15.10;99.90
3752;DHT22;50827;47.014;7.652;2022-09-09T05:54:55;15.20;99.90
3752;DHT22;50827;47.014;7.652;2022-09-09T05:57:23;15.30;99.90
3752;DHT22;50827;47.014;7.652;2022-09-09T05:59:49;15.30;99.90
3752;DHT22;50827;47.014;7.652;2022-09-09T06:02:16;15.40;99.90
3752;DHT22;50827;47.014;7.652;2022-09-09T06:04:43;15.50;99.90
3752;DHT22;50827;47.014;7.652;2022-09-09T06:07:10;15.50;99.90
3752;DHT22;50827;47.014;7.652;2022-09-09T06:09:37;15.50;99.90
3752;DHT22;50827;47.014;7.652;2022-09-09T06:12:03;15.50;99.90
3752;DHT22;50827;47.014;7.652;2022-09-09T06:14:30;15.50;99.90
3752;DHT22;50827;47.014;7.652;2022-09-09T06:16:57;15.50;99.90
3752;DHT22;50827;47.014;7.652;2022-09-09T06:19:23;15.50;99.90
3752;DHT22;50827;47.014;7.652;2022-09-09T06:21:53;15.50;99.90
3752;DHT22;50827;47.014;7.652;2022-09-09T06:24:19;15.60;99.90
3752;DHT22;50827;47.014;7.652;2022-09-09T06:26:46;15.60;99.90
3752;DHT22;50827;47.014;7.652;2022-09-09T06:29:13;15.70;99.90
3752;DHT22;50827;47.014;7.652;2022-09-09T06:31:39;15.70;99.90
3752;DHT22;50827;47.014;7.652;2022-09-09T06:34:08;15.70;99.90
3752;DHT22;50827;47.014;7.652;2022-09-09T06:36:37;15.80;99.90
3752;DHT22;50827;47.014;7.652;2022-09-09T06:39:05;15.80;99.90
3752;DHT22;50827;47.014;7.652;2022-09-09T06:41:39;15.90;99.90
3752;DHT22;50827;47.014;7.652;2022-09-09T06:44:06;15.90;99.90
3752;DHT22;50827;47.014;7.652;2022-09-09T06:46:33;16.00;99.90
3752;DHT22;50827;47.014;7.652;2022-09-09T06:49:02;16.00;99.90
3752;DHT22;50827;47.014;7.652;2022-09-09T06:51:34;15.90;99.90
3752;DHT22;50827;47.014;7.652;2022-09-09T06:54:03;16.00;99.90
3752;DHT22;50827;47.014;7.652;2022-09-09T06:56:32;15.90;99.90
3752;DHT22;50827;47.014;7.652;2022-09-09T06:59:01;16.00;99.90
3752;DHT22;50827;47.014;7.652;2022-09-09T07:01:32;15.90;99.90
3752;DHT22;50827;47.014;7.652;2022-09-09T07:03:59;16.00;99.90
3752;DHT22;50827;47.014;7.652;2022-09-09T07:06:29;16.00;99.90
3752;DHT22;50827;47.014;7.652;2022-09-09T07:08:57;16.00;99.90
3752;DHT22;50827;47.014;7.652;2022-09-09T07:11:28;16.10;99.90
3752;DHT22;50827;47.014;7.652;2022-09-09T07:13:56;16.20;99.90
3752;DHT22;50827;47.014;7.652;2022-09-09T07:16:23;16.20;99.90
3752;DHT22;50827;47.014;7.652;2022-09-09T07:18:54;16.20;99.90
3752;DHT22;50827;47.014;7.652;2022-09-09T07:21:26;16.20;99.90
3752;DHT22;50827;47.014;7.652;2022-09-09T07:23:53;16.20;99.90
3752;DHT22;50827;47.014;7.652;2022-09-09T07:26:23;16.30;99.90
3752;DHT22;50827;47.014;7.652;2022-09-09T07:28:50;16.30;99.90
3752;DHT22;50827;47.014;7.652;2022-09-09T07:31:26;16.40;99.90
3752;DHT22;50827;47.014;7.652;2022-09-09T07:33:53;16.50;99.90
3752;DHT22;50827;47.014;7.652;2022-09-09T07:36:22;16.50;99.90
3752;DHT22;50827;47.014;7.652;2022-09-09T07:38:55;16.60;99.90
3752;DHT22;50827;47.014;7.652;2022-09-09T07:41:32;16.70;99.90
3752;DHT22;50827;47.014;7.652;2022-09-09T07:44:05;16.90;99.90
3752;DHT22;50827;47.014;7.652;2022-09-09T07:46:33;17.00;99.90
3752;DHT22;50827;47.014;7.652;2022-09-09T07:49:00;17.00;99.90
3752;DHT22;50827;47.014;7.652;2022-09-09T07:51:30;17.20;99.90
3752;DHT22;50827;47.014;7.652;2022-09-09T07:54:00;17.30;99.90
3752;DHT22;50827;47.014;7.652;2022-09-09T07:56:29;17.40;99.90
3752;DHT22;50827;47.014;7.652;2022-09-09T07:58:57;17.50;99.90
3752;DHT22;50827;47.014;7.652;2022-09-09T08:01:30;17.50;99.90
3752;DHT22;50827;47.014;7.652;2022-09-09T08:04:00;17.60;99.90
3752;DHT22;50827;47.014;7.652;2022-09-09T08:06:36;17.60;99.90
3752;DHT22;50827;47.014;7.652;2022-09-09T08:09:04;17.70;99.90
3752;DHT22;50827;47.014;7.652;2022-09-09T08:11:32;17.70;99.90
3752;DHT22;50827;47.014;7.652;2022-09-09T08:14:06;17.70;99.90
3752;DHT22;50827;47.014;7.652;2022-09-09T08:16:36;17.70;99.90
3752;DHT22;50827;47.014;7.652;2022-09-09T08:19:04;17.60;99.90
3752;DHT22;50827;47.014;7.652;2022-09-09T08:21:34;17.50;99.90
3752;DHT22;50827;47.014;7.652;2022-09-09T08:24:03;17.50;99.90
3752;DHT22;50827;47.014;7.652;2022-09-09T08:26:36;17.40;99.90
3752;DHT22;50827;47.014;7.652;2022-09-09T08:29:05;17.40;99.90
3752;DHT22;50827;47.014;7.652;2022-09-09T08:31:38;17.30;99.90
3752;DHT22;50827;47.014;7.652;2022-09-09T08:34:06;17.20;99.90
3752;DHT22;50827;47.014;7.652;2022-09-09T08:36:37;17.00;99.90
3752;DHT22;50827;47.014;7.652;2022-09-09T08:39:05;16.90;99.90
3752;DHT22;50827;47.014;7.652;2022-09-09T08:50:22;16.70;99.90
3752;DHT22;50827;47.014;7.652;2022-09-09T08:53:04;16.80;99.90
3752;DHT22;50827;47.014;7.652;2022-09-09T08:55:42;16.90;99.90
3752;DHT22;50827;47.014;7.652;2022-09-09T08:58:19;16.90;99.90
3752;DHT22;50827;47.014;7.652;2022-09-09T09:04:03;17.00;99.90
3752;DHT22;50827;47.014;7.652;2022-09-09T09:09:46;17.10;99.90
3752;DHT22;50827;47.014;7.652;2022-09-09T09:12:22;17.30;99.90
3752;DHT22;50827;47.014;7.652;2022-09-09T09:14:50;17.30;99.90
3752;DHT22;50827;47.014;7.652;2022-09-09T09:17:21;17.40;99.90
3752;DHT22;50827;47.014;7.652;2022-09-09T09:19:50;17.40;99.90
3752;DHT22;50827;47.014;7.652;2022-09-09T09:22:30;17.50;99.90
3752;DHT22;50827;47.014;7.652;2022-09-09T09:25:16;17.60;99.90
3752;DHT22;50827;47.014;7.652;2022-09-09T09:27:59;17.70;99.90
3752;DHT22;50827;47.014;7.652;2022-09-09T09:30:34;17.70;99.90
3752;DHT22;50827;47.014;7.652;2022-09-09T09:33:10;17.80;99.90
3752;DHT22;50827;47.014;7.652;2022-09-09T09:35:40;17.80;99.90
3752;DHT22;50827;47.014;7.652;2022-09-09T09:38:17;17.90;99.90
3752;DHT22;50827;47.014;7.652;2022-09-09T09:41:04;17.90;99.90
3752;DHT22;50827;47.014;7.652;2022-09-09T09:43:34;17.90;99.90
3752;DHT22;50827;47.014;7.652;2022-09-09T09:46:04;18.10;99.90
3752;DHT22;50827;47.014;7.652;2022-09-09T09:48:43;18.10;99.90
3752;DHT22;50827;47.014;7.652;2022-09-09T09:51:22;18.20;99.90
3752;DHT22;50827;47.014;7.652;2022-09-09T09:53:49;18.20;99.90
3752;DHT22;50827;47.014;7.652;2022-09-09T09:56:16;18.30;99.90
3752;DHT22;50827;47.014;7.652;2022-09-09T10:03:57;18.40;99.90
3752;DHT22;50827;47.014;7.652;2022-09-09T10:06:33;18.50;99.90
3752;DHT22;50827;47.014;7.652;2022-09-09T10:09:01;18.70;99.90
3752;DHT22;50827;47.014;7.652;2022-09-09T10:11:49;18.80;99.90
3752;DHT22;50827;47.014;7.652;2022-09-09T10:14:37;18.80;99.90
3752;DHT22;50827;47.014;7.652;2022-09-09T10:17:24;18.80;99.90
3752;DHT22;50827;47.014;7.652;2022-09-09T10:20:24;18.90;99.90
3752;DHT22;50827;47.014;7.652;2022-09-09T10:23:11;18.90;99.90
3752;DHT22;50827;47.014;7.652;2022-09-09T10:37:35;18.90;99.90
3752;DHT22;50827;47.014;7.652;2022-09-09T10:42:40;19.00;99.90
3752;DHT22;50827;47.014;7.652;2022-09-09T10:53:53;19.20;99.90
3752;DHT22;50827;47.014;7.652;2022-09-09T10:56:24;19.30;99.90
3752;DHT22;50827;47.014;7.652;2022-09-09T10:59:10;19.40;99.90
3752;DHT22;50827;47.014;7.652;2022-09-09T11:02:35;19.60;99.90
3752;DHT22;50827;47.014;7.652;2022-09-09T11:04:49;19.60;99.90
3752;DHT22;50827;47.014;7.652;2022-09-09T11:07:32;19.60;99.90
3752;DHT22;50827;47.014;7.652;2022-09-09T11:10:20;19.50;99.90
3752;DHT22;50827;47.014;7.652;2022-09-09T11:12:53;19.60;99.90
3752;DHT22;50827;47.014;7.652;2022-09-09T11:15:35;19.50;99.90
3752;DHT22;50827;47.014;7.652;2022-09-09T11:18:04;19.50;99.90
3752;DHT22;50827;47.014;7.652;2022-09-09T11:20:32;19.60;99.90
3752;DHT22;50827;47.014;7.652;2022-09-09T11:23:13;19.70;99.90
3752;DHT22;50827;47.014;7.652;2022-09-09T11:25:46;19.70;99.90
3752;DHT22;50827;47.014;7.652;2022-09-09T11:44:41;19.90;99.90
3752;DHT22;50827;47.014;7.652;2022-09-09T11:47:24;20.00;99.90
3752;DHT22;50827;47.014;7.652;2022-09-09T11:49:54;20.20;99.90
3752;DHT22;50827;47.014;7.652;2022-09-09T11:52:42;20.30;99.90
3752;DHT22;50827;47.014;7.652;2022-09-09T11:55:24;20.50;99.90
3752;DHT22;50827;47.014;7.652;2022-09-09T12:00:39;20.70;99.90
3752;DHT22;50827;47.014;7.652;2022-09-09T12:03:47;20.70;99.90
3752;DHT22;50827;47.014;7.652;2022-09-09T12:08:51;20.70;99.90
3752;DHT22;50827;47.014;7.652;2022-09-09T12:11:29;20.70;99.90
3752;DHT22;50827;47.014;7.652;2022-09-09T12:13:59;20.70;99.90
3752;DHT22;50827;47.014;7.652;2022-09-09T12:16:35;20.60;99.90
3752;DHT22;50827;47.014;7.652;2022-09-09T12:19:05;20.70;99.90
3752;DHT22;50827;47.014;7.652;2022-09-09T12:21:59;20.70;99.90
3752;DHT22;50827;47.014;7.652;2022-09-09T12:27:20;20.70;99.90
3752;DHT22;50827;47.014;7.652;2022-09-09T12:30:01;20.80;99.90
3752;DHT22;50827;47.014;7.652;2022-09-09T12:32:28;20.80;99.90
3752;DHT22;50827;47.014;7.652;2022-09-09T12:35:09;20.80;99.90
3752;DHT22;50827;47.014;7.652;2022-09-09T12:37:51;20.80;99.90
3752;DHT22;50827;47.014;7.652;2022-09-09T12:40:32;20.80;99.90
3752;DHT22;50827;47.014;7.652;2022-09-09T12:43:16;20.90;99.90
3752;DHT22;50827;47.014;7.652;2022-09-09T12:45:43;21.00;99.90
3752;DHT22;50827;47.014;7.652;2022-09-09T12:48:12;21.10;99.90
3752;DHT22;50827;47.014;7.652;2022-09-09T12:50:52;21.00;99.90
3752;DHT22;50827;47.014;7.652;2022-09-09T12:53:34;21.00;99.90
3752;DHT22;50827;47.014;7.652;2022-09-09T12:56:06;21.10;99.90
3752;DHT22;50827;47.014;7.652;2022-09-09T12:58:37;21.10;99.90
3752;DHT22;50827;47.014;7.652;2022-09-09T13:01:05;21.10;99.90
3752;DHT22;50827;47.014;7.652;2022-09-09T13:03:33;21.10;99.90
3752;DHT22;50827;47.014;7.652;2022-09-09T13:06:19;21.20;99.90
3752;DHT22;50827;47.014;7.652;2022-09-09T13:08:54;21.20;99.90
3752;DHT22;50827;47.014;7.652;2022-09-09T13:11:35;21.20;99.90
3752;DHT22;50827;47.014;7.652;2022-09-09T13:14:03;21.20;99.90
3752;DHT22;50827;47.014;7.652;2022-09-09T13:16:33;21.20;99.90
3752;DHT22;50827;47.014;7.652;2022-09-09T13:19:09;21.20;99.90
3752;DHT22;50827;47.014;7.652;2022-09-09T13:21:38;21.20;99.90
3752;DHT22;50827;47.014;7.652;2022-09-09T13:24:22;21.20;99.90
3752;DHT22;50827;47.014;7.652;2022-09-09T13:26:58;21.30;99.90
3752;DHT22;50827;47.014;7.652;2022-09-09T13:29:25;21.20;99.90
3752;DHT22;50827;47.014;7.652;2022-09-09T13:31:53;21.20;99.90
3752;DHT22;50827;47.014;7.652;2022-09-09T13:34:31;21.30;99.90
3752;DHT22;50827;47.014;7.652;2022-09-09T13:37:07;21.20;99.90
3752;DHT22;50827;47.014;7.652;2022-09-09T13:39:51;21.20;99.90
3752;DHT22;50827;47.014;7.652;2022-09-09T13:42:26;21.20;99.90
3752;DHT22;50827;47.014;7.652;2022-09-09T13:44:55;21.10;99.90
3752;DHT22;50827;47.014;7.652;2022-09-09T13:47:31;21.30;99.90
3752;DHT22;50827;47.014;7.652;2022-09-09T13:49:58;21.20;99.90
3752;DHT22;50827;47.014;7.652;2022-09-09T13:52:26;21.20;99.90
3752;DHT22;50827;47.014;7.652;2022-09-09T13:54:53;21.30;99.90
3752;DHT22;50827;47.014;7.652;2022-09-09T13:57:22;21.20;99.90
3752;DHT22;50827;47.014;7.652;2022-09-09T13:59:53;21.30;99.90
3752;DHT22;50827;47.014;7.652;2022-09-09T14:02:36;21.30;99.90
3752;DHT22;50827;47.014;7.652;2022-09-09T14:05:05;21.40;99.90
3752;DHT22;50827;47.014;7.652;2022-09-09T14:07:32;21.40;99.90
3752;DHT22;50827;47.014;7.652;2022-09-09T14:09:58;21.40;99.90
3752;DHT22;50827;47.014;7.652;2022-09-09T14:12:26;21.30;99.90
3752;DHT22;50827;47.014;7.652;2022-09-09T14:14:53;21.30;99.90
3752;DHT22;50827;47.014;7.652;2022-09-09T14:17:20;21.30;99.90
3752;DHT22;50827;47.014;7.652;2022-09-09T14:19:46;21.30;99.90
3752;DHT22;50827;47.014;7.652;2022-09-09T14:22:13;21.40;99.90
3752;DHT22;50827;47.014;7.652;2022-09-09T14:24:40;21.40;99.90
3752;DHT22;50827;47.014;7.652;2022-09-09T14:27:07;21.40;99.90
3752;DHT22;50827;47.014;7.652;2022-09-09T14:29:33;21.40;99.90
3752;DHT22;50827;47.014;7.652;2022-09-09T14:32:00;21.40;99.90
3752;DHT22;50827;47.014;7.652;2022-09-09T14:34:27;21.40;99.90
3752;DHT22;50827;47.014;7.652;2022-09-09T14:36:54;21.50;99.90
3752;DHT22;50827;47.014;7.652;2022-09-09T14:39:20;21.60;99.90
3752;DHT22;50827;47.014;7.652;2022-09-09T14:41:47;21.50;99.90
3752;DHT22;50827;47.014;7.652;2022-09-09T14:44:13;21.50;99.90
3752;DHT22;50827;47.014;7.652;2022-09-09T14:46:40;21.50;99.90
3752;DHT22;50827;47.014;7.652;2022-09-09T14:49:08;21.50;99.90
3752;DHT22;50827;47.014;7.652;2022-09-09T14:51:36;21.50;99.90
3752;DHT22;50827;47.014;7.652;2022-09-09T14:54:03;21.50;99.90
3752;DHT22;50827;47.014;7.652;2022-09-09T14:56:32;21.50;99.90
3752;DHT22;50827;47.014;7.652;2022-09-09T14:59:01;21.50;99.90
3752;DHT22;50827;47.014;7.652;2022-09-09T15:01:29;21.60;99.90
3752;DHT22;50827;47.014;7.652;2022-09-09T15:04:01;21.50;99.90
3752;DHT22;50827;47.014;7.652;2022-09-09T15:06:30;21.50;99.90
3752;DHT22;50827;47.014;7.652;2022-09-09T15:08:58;21.50;99.90
3752;DHT22;50827;47.014;7.652;2022-09-09T15:11:30;21.50;99.90
3752;DHT22;50827;47.014;7.652;2022-09-09T15:13:58;21.40;99.90
3752;DHT22;50827;47.014;7.652;2022-09-09T15:16:27;21.40;99.90
3752;DHT22;50827;47.014;7.652;2022-09-09T15:18:56;21.40;99.90
3752;DHT22;50827;47.014;7.652;2022-09-09T15:21:26;21.30;99.90
3752;DHT22;50827;47.014;7.652;2022-09-09T15:23:53;21.20;99.90
3752;DHT22;50827;47.014;7.652;2022-09-09T15:26:20;21.20;99.90
3752;DHT22;50827;47.014;7.652;2022-09-09T15:28:47;21.30;99.90
3752;DHT22;50827;47.014;7.652;2022-09-09T15:33:50;21.30;99.90
3752;DHT22;50827;47.014;7.652;2022-09-09T15:36:18;21.30;99.90
3752;DHT22;50827;47.014;7.652;2022-09-09T15:38:45;21.30;99.90
3752;DHT22;50827;47.014;7.652;2022-09-09T15:41:15;21.40;99.90
3752;DHT22;50827;47.014;7.652;2022-09-09T15:43:47;21.30;99.90
3752;DHT22;50827;47.014;7.652;2022-09-09T15:46:27;21.40;99.90
3752;DHT22;50827;47.014;7.652;2022-09-09T15:48:57;21.40;99.90
3752;DHT22;50827;47.014;7.652;2022-09-09T15:51:25;21.30;99.90
3752;DHT22;50827;47.014;7.652;2022-09-09T15:54:14;21.40;99.90
3752;DHT22;50827;47.014;7.652;2022-09-09T15:56:43;21.30;99.90
3752;DHT22;50827;47.014;7.652;2022-09-09T15:59:10;21.30;99.90
3752;DHT22;50827;47.014;7.652;2022-09-09T16:01:38;21.20;99.90
3752;DHT22;50827;47.014;7.652;2022-09-09T16:04:06;21.10;99.90
3752;DHT22;50827;47.014;7.652;2022-09-09T16:06:32;21.00;99.90
3752;DHT22;50827;47.014;7.652;2022-09-09T16:09:01;20.90;99.90
3752;DHT22;50827;47.014;7.652;2022-09-09T16:11:30;20.80;99.90
3752;DHT22;50827;47.014;7.652;2022-09-09T16:13:59;20.70;99.90
3752;DHT22;50827;47.014;7.652;2022-09-09T16:16:28;20.60;99.90
3752;DHT22;50827;47.014;7.652;2022-09-09T16:18:57;20.60;99.90
3752;DHT22;50827;47.014;7.652;2022-09-09T16:21:29;20.50;99.90
3752;DHT22;50827;47.014;7.652;2022-09-09T16:23:57;20.50;99.90
3752;DHT22;50827;47.014;7.652;2022-09-09T16:26:26;20.40;99.90
3752;DHT22;50827;47.014;7.652;2022-09-09T16:28:57;20.40;99.90
3752;DHT22;50827;47.014;7.652;2022-09-09T16:31:25;20.30;99.90
3752;DHT22;50827;47.014;7.652;2022-09-09T16:33:53;20.20;99.90
3752;DHT22;50827;47.014;7.652;2022-09-09T16:36:23;20.10;99.90
3752;DHT22;50827;47.014;7.652;2022-09-09T16:38:58;20.10;99.90
3752;DHT22;50827;47.014;7.652;2022-09-09T16:41:26;20.00;99.90
3752;DHT22;50827;47.014;7.652;2022-09-09T16:43:58;19.90;99.90
3752;DHT22;50827;47.014;7.652;2022-09-09T16:46:26;19.90;99.90
3752;DHT22;50827;47.014;7.652;2022-09-09T16:48:56;19.90;99.90
3752;DHT22;50827;47.014;7.652;2022-09-09T16:51:26;19.60;99.90
3752;DHT22;50827;47.014;7.652;2022-09-09T16:53:54;19.40;99.90
3752;DHT22;50827;47.014;7.652;2022-09-09T16:56:25;19.30;99.90
3752;DHT22;50827;47.014;7.652;2022-09-09T16:58:55;19.00;99.90
3752;DHT22;50827;47.014;7.652;2022-09-09T17:01:27;19.10;99.90
3752;DHT22;50827;47.014;7.652;2022-09-09T17:03:59;19.00;99.90
3752;DHT22;50827;47.014;7.652;2022-09-09T17:06:29;18.90;99.90
3752;DHT22;50827;47.014;7.652;2022-09-09T17:08:57;18.90;99.90
3752;DHT22;50827;47.014;7.652;2022-09-09T17:11:24;18.80;99.90
3752;DHT22;50827;47.014;7.652;2022-09-09T17:13:53;18.80;99.90
3752;DHT22;50827;47.014;7.652;2022-09-09T17:16:24;18.80;99.90
3752;DHT22;50827;47.014;7.652;2022-09-09T17:18:54;18.80;99.90
3752;DHT22;50827;47.014;7.652;2022-09-09T17:21:24;18.70;99.90
3752;DHT22;50827;47.014;7.652;2022-09-09T17:23:52;18.70;99.90
3752;DHT22;50827;47.014;7.652;2022-09-09T17:26:22;18.70;99.90
3752;DHT22;50827;47.014;7.652;2022-09-09T17:28:49;18.70;99.90
3752;DHT22;50827;47.014;7.652;2022-09-09T17:31:17;18.70;99.90
3752;DHT22;50827;47.014;7.652;2022-09-09T17:33:46;18.60;99.90
3752;DHT22;50827;47.014;7.652;2022-09-09T17:36:18;18.70;99.90
3752;DHT22;50827;47.014;7.652;2022-09-09T17:38:45;18.60;99.90
3752;DHT22;50827;47.014;7.652;2022-09-09T17:41:27;18.60;99.90
3752;DHT22;50827;47.014;7.652;2022-09-09T17:43:54;18.60;99.90
3752;DHT22;50827;47.014;7.652;2022-09-09T17:46:23;18.60;99.90
3752;DHT22;50827;47.014;7.652;2022-09-09T17:48:55;18.50;99.90
3752;DHT22;50827;47.014;7.652;2022-09-09T17:51:24;18.50;99.90
3752;DHT22;50827;47.014;7.652;2022-09-09T17:53:52;18.40;99.90
3752;DHT22;50827;47.014;7.652;2022-09-09T17:56:26;18.40;99.90
3752;DHT22;50827;47.014;7.652;2022-09-09T17:58:54;18.40;99.90
3752;DHT22;50827;47.014;7.652;2022-09-09T18:01:26;18.20;99.90
3752;DHT22;50827;47.014;7.652;2022-09-09T18:03:55;18.10;99.90
3752;DHT22;50827;47.014;7.652;2022-09-09T18:06:27;18.10;99.90